Time;durP1;ratioP1;P1;durP2;ratioP2;P2;SDS_P1;SDS_P2;PMS_P1;PMS_P2;Temp;Humidity;BMP_temperature;BMP_pressure;BME280_temperature;BME280_humidity;BME280_pressure;Samples;Min_cycle;Max_cycle;Signal;HPM_P1;HPM_P2
2023/07/09 00:01:47;;;;;;;8.97;5.50;;;21.60;14.40;;;;;;5045633;28;20474;-71
2023/07/09 00:04:14;;;;;;;8.97;5.33;;;21.60;14.60;;;;;;5045626;28;20502;-71
2023/07/09 00:06:41;;;;;;;11.53;4.90;;;21.50;14.70;;;;;;5047723;28;20469;-71
2023/07/09 00:09:14;;;;;;;9.93;5.67;;;21.50;14.70;;;;;;5045404;28;20470;-72
2023/07/09 00:11:41;;;;;;;8.63;5.43;;;21.50;14.80;;;;;;5045614;28;20469;-72
2023/07/09 00:14:11;;;;;;;8.07;5.00;;;21.50;15.00;;;;;;5045425;28;20489;-72
2023/07/09 00:16:39;;;;;;;9.17;5.60;;;21.50;14.90;;;;;;5047924;28;20469;-72
2023/07/09 00:19:13;;;;;;;9.80;5.90;;;21.50;14.90;;;;;;5045128;28;20466;-72
2023/07/09 00:21:40;;;;;;;9.73;5.27;;;21.60;14.90;;;;;;5047211;28;20806;-72
2023/07/09 00:24:07;;;;;;;12.43;6.00;;;21.50;15.00;;;;;;5050363;28;20485;-72
2023/07/09 00:26:34;;;;;;;10.47;5.93;;;21.50;15.10;;;;;;5051826;28;20927;-72
2023/07/09 00:29:01;;;;;;;9.13;5.57;;;21.60;15.00;;;;;;5050767;28;20466;-72
2023/07/09 00:31:29;;;;;;;8.73;5.33;;;21.50;15.10;;;;;;5047337;28;20485;-71
2023/07/09 00:33:56;;;;;;;10.30;5.70;;;21.50;15.20;;;;;;5049272;28;20481;-71
2023/07/09 00:36:31;;;;;;;9.50;5.93;;;21.40;15.30;;;;;;5046562;28;20512;-71
2023/07/09 00:38:59;;;;;;;10.30;5.87;;;21.40;15.90;;;;;;5050702;28;20552;-72
2023/07/09 00:41:28;;;;;;;10.73;5.67;;;21.30;16.10;;;;;;5047870;28;20482;-72
2023/07/09 00:43:55;;;;;;;18.73;6.37;;;21.30;16.30;;;;;;5048346;28;21087;-71
2023/07/09 00:47:00;;;;;;;9.23;5.60;;;21.20;16.50;;;;;;5048120;28;20461;-71
2023/07/09 00:49:34;;;;;;;10.10;6.27;;;21.20;17.10;;;;;;5048301;28;20461;-71
2023/07/09 00:52:14;;;;;;;9.50;5.33;;;21.30;17.00;;;;;;5049825;28;20941;-71
2023/07/09 00:54:46;;;;;;;8.63;5.47;;;21.30;16.90;;;;;;5048584;28;20927;-72
2023/07/09 00:57:17;;;;;;;11.27;5.93;;;21.30;16.80;;;;;;5048512;28;20548;-72
2023/07/09 00:59:48;;;;;;;11.57;5.03;;;21.30;16.80;;;;;;5045633;28;20985;-72
2023/07/09 01:02:15;;;;;;;9.50;5.63;;;21.30;16.50;;;;;;5048933;28;20508;-72
2023/07/09 01:04:44;;;;;;;10.90;5.77;;;21.30;16.50;;;;;;5046244;28;20488;-72
2023/07/09 01:07:11;;;;;;;10.20;5.67;;;21.20;16.50;;;;;;5049841;28;20466;-71
2023/07/09 01:09:41;;;;;;;8.03;5.20;;;21.10;16.70;;;;;;5046115;28;21075;-71
2023/07/09 01:12:09;;;;;;;9.10;5.40;;;21.10;16.90;;;;;;5047063;28;20477;-71
2023/07/09 01:14:38;;;;;;;9.37;5.97;;;21.00;17.00;;;;;;5049924;28;20488;-71
2023/07/09 01:17:07;;;;;;;11.83;5.63;;;21.00;17.10;;;;;;5052148;28;21155;-71
2023/07/09 01:19:43;;;;;;;9.90;5.60;;;21.00;17.20;;;;;;5052133;28;20461;-71
2023/07/09 01:22:13;;;;;;;10.23;5.47;;;21.00;17.20;;;;;;5052949;28;20461;-71
2023/07/09 01:24:57;;;;;;;11.67;6.67;;;20.90;17.60;;;;;;5053316;28;20485;-71
2023/07/09 01:27:26;;;;;;;9.47;5.77;;;20.80;17.80;;;;;;5052176;28;20458;-71
2023/07/09 01:29:54;;;;;;;9.87;6.40;;;20.80;17.70;;;;;;5052803;28;20884;-72
2023/07/09 01:32:22;;;;;;;11.73;6.30;;;20.80;17.80;;;;;;5045244;28;20474;-71
2023/07/09 01:34:52;;;;;;;11.80;6.50;;;20.70;17.80;;;;;;5052486;28;21017;-72
2023/07/09 01:37:23;;;;;;;9.63;5.87;;;20.70;18.00;;;;;;5046738;28;20473;-71
2023/07/09 01:39:51;;;;;;;10.93;5.87;;;20.70;18.10;;;;;;5050447;28;20466;-72
2023/07/09 01:42:20;;;;;;;11.90;6.37;;;20.70;18.20;;;;;;5053022;28;20930;-71
2023/07/09 01:44:46;;;;;;;10.93;7.13;;;20.70;18.30;;;;;;5049828;28;20521;-71
2023/07/09 01:47:13;;;;;;;9.93;5.90;;;20.70;18.30;;;;;;5050335;28;20497;-71
2023/07/09 01:49:40;;;;;;;10.50;6.70;;;20.60;18.40;;;;;;5053832;28;20469;-72
2023/07/09 01:52:09;;;;;;;10.50;5.73;;;20.60;18.40;;;;;;5052941;28;20901;-72
2023/07/09 01:54:37;;;;;;;9.33;5.50;;;20.60;18.50;;;;;;5052834;28;20521;-71
2023/07/09 01:57:16;;;;;;;11.37;6.33;;;20.60;18.50;;;;;;5051045;28;20501;-71
2023/07/09 01:59:44;;;;;;;8.33;5.10;;;20.50;18.70;;;;;;5049066;28;20461;-71
2023/07/09 02:02:18;;;;;;;10.57;5.47;;;20.50;18.60;;;;;;5045831;28;20473;-71
2023/07/09 02:04:46;;;;;;;9.63;6.07;;;20.50;18.80;;;;;;5051609;28;20841;-71
2023/07/09 02:07:13;;;;;;;14.10;6.80;;;20.50;18.90;;;;;;5053365;28;20466;-71
2023/07/09 02:09:41;;;;;;;11.67;6.30;;;20.40;18.90;;;;;;5050837;28;20512;-71
2023/07/09 02:12:09;;;;;;;17.37;7.00;;;20.40;19.10;;;;;;5055716;28;20458;-71
2023/07/09 02:14:36;;;;;;;8.60;5.83;;;20.40;19.10;;;;;;5048030;28;20560;-72
2023/07/09 02:17:03;;;;;;;11.70;5.80;;;20.40;19.30;;;;;;5054389;28;20469;-71
2023/07/09 02:19:31;;;;;;;10.07;5.73;;;20.40;19.20;;;;;;5053543;28;20461;-72
2023/07/09 02:21:58;;;;;;;8.83;6.47;;;20.30;19.20;;;;;;5051001;28;20490;-72
2023/07/09 02:24:26;;;;;;;10.10;5.97;;;20.30;19.60;;;;;;5053432;28;20482;-72
2023/07/09 02:26:54;;;;;;;9.00;5.80;;;20.20;19.60;;;;;;5053325;28;20964;-71
2023/07/09 02:29:21;;;;;;;8.80;5.80;;;20.20;19.60;;;;;;5051920;28;20470;-71
2023/07/09 02:31:50;;;;;;;9.10;6.80;;;20.20;19.40;;;;;;5046516;28;20469;-71
2023/07/09 02:34:17;;;;;;;9.93;6.80;;;20.30;19.50;;;;;;5054952;28;20485;-72
2023/07/09 02:36:44;;;;;;;9.27;6.13;;;20.20;19.70;;;;;;5050845;28;20464;-71
2023/07/09 02:39:12;;;;;;;10.30;6.30;;;20.20;19.90;;;;;;5052283;28;20458;-71
2023/07/09 02:41:39;;;;;;;10.63;6.67;;;20.20;20.00;;;;;;5051928;28;20569;-71
2023/07/09 02:44:07;;;;;;;9.77;6.13;;;20.20;20.00;;;;;;5054073;28;20506;-71
2023/07/09 02:46:35;;;;;;;10.80;6.77;;;20.10;20.50;;;;;;5048006;28;20466;-71
2023/07/09 02:49:04;;;;;;;11.90;7.23;;;20.10;20.50;;;;;;5052996;28;20480;-71
2023/07/09 02:51:31;;;;;;;13.07;7.97;;;20.10;21.00;;;;;;5050005;28;20461;-71
2023/07/09 02:54:00;;;;;;;10.80;6.70;;;20.00;21.00;;;;;;5054488;28;20486;-72
2023/07/09 02:56:27;;;;;;;12.90;7.47;;;20.00;21.10;;;;;;5048075;28;20462;-71
2023/07/09 02:58:54;;;;;;;11.60;6.47;;;20.00;21.10;;;;;;5052771;28;20465;-72
2023/07/09 03:01:24;;;;;;;12.20;7.30;;;20.00;21.90;;;;;;5049971;28;20470;-72
2023/07/09 03:03:52;;;;;;;13.80;6.20;;;20.00;21.50;;;;;;5051799;28;20484;-71
2023/07/09 03:06:21;;;;;;;12.90;7.27;;;20.00;21.50;;;;;;5047548;28;20462;-71
2023/07/09 03:08:48;;;;;;;10.00;7.40;;;19.90;21.60;;;;;;5048967;28;20469;-71
2023/07/09 03:11:16;;;;;;;10.93;6.57;;;19.90;21.50;;;;;;5047316;28;20950;-71
2023/07/09 03:13:43;;;;;;;10.53;6.73;;;19.90;21.90;;;;;;5048820;28;20494;-72
2023/07/09 03:16:10;;;;;;;9.90;6.37;;;19.90;21.50;;;;;;5046243;28;20469;-72
2023/07/09 03:18:39;;;;;;;9.63;6.77;;;19.90;21.70;;;;;;5049414;28;20457;-71
2023/07/09 03:21:06;;;;;;;10.97;6.90;;;19.90;21.90;;;;;;5047138;28;20481;-71
2023/07/09 03:23:32;;;;;;;10.63;6.17;;;19.90;21.80;;;;;;5048364;28;20489;-72
2023/07/09 03:26:00;;;;;;;12.80;6.30;;;19.80;21.50;;;;;;5050369;28;20957;-72
2023/07/09 03:28:27;;;;;;;12.60;8.20;;;19.90;21.90;;;;;;5052266;28;20889;-71
2023/07/09 03:30:55;;;;;;;12.10;7.47;;;19.80;21.60;;;;;;5048763;28;20998;-71
2023/07/09 03:33:23;;;;;;;13.20;7.07;;;19.80;21.70;;;;;;5046138;28;20524;-71
2023/07/09 03:35:52;;;;;;;10.20;6.70;;;19.80;21.70;;;;;;5049276;28;20458;-71
2023/07/09 03:38:18;;;;;;;8.83;6.70;;;19.80;21.80;;;;;;5049566;28;20458;-71
2023/07/09 03:40:46;;;;;;;11.20;6.40;;;19.80;21.90;;;;;;5052658;28;20482;-71
2023/07/09 03:43:12;;;;;;;10.07;6.83;;;19.70;22.00;;;;;;5051286;28;20577;-71
2023/07/09 03:45:39;;;;;;;9.40;6.10;;;19.70;22.10;;;;;;5049043;28;20458;-71
2023/07/09 03:48:07;;;;;;;10.20;6.60;;;19.70;22.30;;;;;;5045032;28;20481;-71
2023/07/09 03:50:34;;;;;;;11.00;6.93;;;19.70;22.20;;;;;;5047530;28;20461;-71
2023/07/09 03:53:02;;;;;;;12.00;8.17;;;19.80;22.40;;;;;;5051243;28;20469;-72
2023/07/09 03:55:29;;;;;;;11.27;7.30;;;19.80;22.40;;;;;;5046882;28;20458;-71
2023/07/09 03:57:56;;;;;;;12.23;6.77;;;19.70;22.40;;;;;;5055494;28;20934;-72
2023/07/09 04:00:24;;;;;;;10.23;6.30;;;19.70;22.80;;;;;;5050340;28;20462;-72
2023/07/09 04:02:52;;;;;;;11.60;6.90;;;19.70;22.60;;;;;;5055564;28;20469;-72
2023/07/09 04:05:19;;;;;;;11.10;7.33;;;19.70;22.80;;;;;;5049271;28;20469;-72
2023/07/09 04:07:46;;;;;;;10.40;6.63;;;19.70;22.70;;;;;;5054454;28;20465;-71
2023/07/09 04:10:14;;;;;;;10.90;6.73;;;19.80;22.70;;;;;;5049265;28;20458;-71
2023/07/09 04:12:41;;;;;;;11.37;6.80;;;19.80;22.70;;;;;;5052316;28;20458;-71
2023/07/09 04:17:43;;;;;;;10.63;6.50;;;19.90;22.40;;;;;;5059836;28;20974;-64
2023/07/09 04:20:10;;;;;;;13.73;7.03;;;19.90;22.10;;;;;;5060255;28;20456;-64
2023/07/09 04:22:38;;;;;;;11.50;7.40;;;20.00;22.20;;;;;;5067616;28;20473;-64
2023/07/09 04:25:09;;;;;;;10.57;6.70;;;20.00;22.20;;;;;;5049420;28;20493;-63
2023/07/09 04:27:37;;;;;;;10.13;6.40;;;20.00;22.40;;;;;;5052999;28;20480;-63
2023/07/09 04:30:05;;;;;;;13.50;8.30;;;20.10;22.50;;;;;;5047084;28;20473;-63
2023/07/09 04:32:32;;;;;;;12.10;6.73;;;20.10;22.50;;;;;;5040625;28;20958;-63
2023/07/09 04:34:59;;;;;;;10.40;6.47;;;20.20;22.50;;;;;;5048662;28;20493;-63
2023/07/09 04:37:26;;;;;;;14.73;6.80;;;20.90;22.50;;;;;;5049956;28;20852;-63
2023/07/09 04:39:52;;;;;;;9.17;6.20;;;22.00;19.70;;;;;;5049040;28;20571;-63
2023/07/09 04:42:19;;;;;;;11.10;5.90;;;22.90;16.90;;;;;;5050420;28;20484;-63
2023/07/09 04:44:47;;;;;;;9.70;5.80;;;23.50;15.10;;;;;;5048812;28;20501;-63
2023/07/09 04:47:14;;;;;;;8.27;5.23;;;24.20;13.30;;;;;;5048734;28;20460;-63
2023/07/09 04:49:41;;;;;;;11.90;6.37;;;24.80;11.40;;;;;;5048474;28;20462;-64
2023/07/09 04:52:11;;;;;;;11.13;5.87;;;25.40;9.60;;;;;;5050904;28;20458;-63
2023/07/09 04:54:39;;;;;;;10.40;5.73;;;25.60;8.80;;;;;;5050079;28;20481;-64
2023/07/09 04:57:06;;;;;;;9.10;5.40;;;25.10;9.10;;;;;;5049948;28;20462;-64
2023/07/09 04:59:33;;;;;;;9.47;5.07;;;24.70;10.10;;;;;;5050015;28;20471;-63
2023/07/09 05:02:01;;;;;;;8.80;5.47;;;24.50;10.80;;;;;;5048929;28;20853;-64
2023/07/09 05:04:28;;;;;;;9.07;5.47;;;24.80;10.50;;;;;;5049317;28;20520;-64
2023/07/09 05:06:55;;;;;;;8.20;5.10;;;25.50;9.40;;;;;;5049520;28;20969;-64
2023/07/09 05:09:23;;;;;;;7.20;4.77;;;26.40;7.80;;;;;;5048760;28;20454;-64
2023/07/09 05:11:50;;;;;;;9.87;5.60;;;27.40;6.00;;;;;;5049461;28;20529;-64
2023/07/09 05:14:17;;;;;;;9.40;4.67;;;28.30;3.90;;;;;;5048466;28;21209;-64
2023/07/09 05:16:44;;;;;;;8.30;5.27;;;28.90;2.50;;;;;;5048894;28;20950;-64
2023/07/09 05:19:12;;;;;;;11.27;5.57;;;29.20;2.70;;;;;;5047466;28;20458;-64
2023/07/09 05:21:39;;;;;;;9.77;5.67;;;29.80;1.80;;;;;;5047381;28;20485;-64
2023/07/09 05:24:07;;;;;;;9.97;5.37;;;30.70;1.00;;;;;;5049483;28;20489;-64
2023/07/09 05:26:33;;;;;;;9.17;5.13;;;31.50;1.00;;;;;;5043930;28;20479;-64
2023/07/09 05:29:00;;;;;;;7.13;4.93;;;31.90;1.00;;;;;;5049582;28;20469;-65
2023/07/09 05:31:27;;;;;;;7.80;4.83;;;32.00;1.00;;;;;;5049866;28;20474;-64
2023/07/09 05:33:53;;;;;;;9.43;4.77;;;32.80;1.00;;;;;;5049087;28;20482;-64
2023/07/09 05:36:21;;;;;;;7.73;4.90;;;33.90;1.00;;;;;;5047172;28;20473;-64
2023/07/09 05:38:48;;;;;;;11.83;5.23;;;34.90;1.00;;;;;;5048603;28;20955;-64
2023/07/09 05:41:16;;;;;;;8.23;5.57;;;36.00;1.00;;;;;;5049753;28;20486;-64
2023/07/09 05:43:44;;;;;;;7.70;4.87;;;36.80;1.00;;;;;;5048195;28;20482;-64
2023/07/09 05:46:11;;;;;;;7.93;5.30;;;37.50;1.00;;;;;;5048384;28;20497;-64
2023/07/09 05:48:38;;;;;;;8.10;5.50;;;38.20;1.00;;;;;;5048949;28;20470;-64
2023/07/09 05:51:04;;;;;;;6.57;4.83;;;38.90;1.00;;;;;;5049679;28;20470;-64
2023/07/09 05:53:33;;;;;;;11.77;5.03;;;39.60;1.00;;;;;;5046061;28;20482;-64
2023/07/09 05:56:00;;;;;;;6.97;4.80;;;40.10;1.00;;;;;;5046971;28;20688;-65
2023/07/09 05:58:26;;;;;;;9.73;5.20;;;40.80;1.00;;;;;;5050102;28;20465;-65
2023/07/09 06:00:56;;;;;;;8.40;4.80;;;41.20;1.00;;;;;;5048570;28;20462;-64
2023/07/09 06:03:25;;;;;;;6.70;4.33;;;41.40;1.00;;;;;;5049444;28;20470;-65
2023/07/09 06:05:52;;;;;;;8.50;5.10;;;41.90;1.00;;;;;;5047709;28;20949;-65
2023/07/09 06:08:19;;;;;;;6.63;4.40;;;42.70;1.00;;;;;;5048100;28;20462;-65
2023/07/09 06:10:55;;;;;;;7.93;4.50;;;43.30;1.00;;;;;;5051844;28;20461;-65
2023/07/09 06:13:22;;;;;;;8.40;4.53;;;44.00;1.00;;;;;;5046558;28;20484;-65
2023/07/09 06:15:49;;;;;;;6.27;4.20;;;44.30;1.00;;;;;;5049839;28;20454;-65
2023/07/09 06:18:16;;;;;;;8.27;4.30;;;44.80;1.00;;;;;;5048640;28;20458;-65
2023/07/09 06:20:47;;;;;;;9.60;5.03;;;45.40;1.00;;;;;;5049348;28;20502;-65
2023/07/09 06:23:14;;;;;;;5.83;3.90;;;45.90;1.00;;;;;;5047625;28;20490;-65
2023/07/09 06:25:41;;;;;;;6.73;4.37;;;46.60;1.00;;;;;;5049333;28;20466;-65
2023/07/09 06:28:09;;;;;;;7.33;4.40;;;47.20;1.00;;;;;;5047706;28;20466;-65
2023/07/09 06:30:37;;;;;;;7.30;4.10;;;47.70;1.00;;;;;;5048097;28;20469;-65
2023/07/09 06:33:04;;;;;;;6.60;4.17;;;48.00;1.00;;;;;;5048859;28;21008;-65
2023/07/09 06:35:30;;;;;;;7.83;4.20;;;48.40;1.00;;;;;;5048232;28;20477;-65
2023/07/09 06:37:57;;;;;;;6.47;3.93;;;48.90;1.00;;;;;;5048968;28;20466;-65
2023/07/09 06:40:24;;;;;;;6.30;4.00;;;49.30;1.00;;;;;;5047637;28;20474;-65
2023/07/09 06:42:51;;;;;;;7.73;4.30;;;49.80;1.00;;;;;;5046794;28;20506;-65
2023/07/09 06:45:19;;;;;;;5.80;3.90;;;50.20;1.00;;;;;;5047415;28;21278;-65
2023/07/09 06:47:45;;;;;;;5.90;4.03;;;50.50;1.00;;;;;;5049603;28;20536;-65
2023/07/09 06:50:13;;;;;;;6.73;3.60;;;50.90;1.00;;;;;;5047778;28;20457;-65
2023/07/09 06:52:39;;;;;;;6.90;4.47;;;51.20;1.00;;;;;;5046924;28;20837;-65
2023/07/09 06:55:07;;;;;;;6.20;4.00;;;51.60;1.00;;;;;;5046784;28;20500;-65
2023/07/09 06:57:34;;;;;;;6.00;4.17;;;51.90;1.00;;;;;;5046049;28;20469;-65
2023/07/09 07:00:00;;;;;;;8.47;4.20;;;52.10;1.00;;;;;;5046443;28;20457;-65
2023/07/09 07:02:28;;;;;;;6.83;3.73;;;52.30;1.00;;;;;;5047519;28;20741;-65
2023/07/09 07:04:55;;;;;;;6.23;3.90;;;52.70;1.00;;;;;;5047917;28;20858;-65
2023/07/09 07:07:22;;;;;;;5.47;4.10;;;53.00;1.00;;;;;;5049072;28;20465;-64
2023/07/09 07:09:48;;;;;;;6.83;3.60;;;53.40;1.00;;;;;;5044291;28;20469;-66
2023/07/09 07:12:24;;;;;;;6.60;3.80;;;53.60;1.00;;;;;;5047554;28;20470;-65
2023/07/09 07:14:51;;;;;;;7.63;3.97;;;53.80;1.00;;;;;;5045345;28;20509;-65
2023/07/09 07:17:17;;;;;;;6.60;3.67;;;54.20;1.00;;;;;;5047191;28;20462;-65
2023/07/09 07:19:46;;;;;;;5.53;3.40;;;54.60;1.00;;;;;;5042292;28;20472;-65
2023/07/09 07:22:12;;;;;;;5.53;3.73;;;55.10;1.00;;;;;;5043943;28;21045;-65
2023/07/09 07:24:39;;;;;;;6.07;3.80;;;55.40;1.00;;;;;;5047207;28;20484;-65
2023/07/09 07:27:06;;;;;;;9.80;3.77;;;55.90;1.00;;;;;;5045594;28;20461;-65
2023/07/09 07:29:33;;;;;;;7.13;4.03;;;56.10;1.00;;;;;;5046931;28;21044;-66
2023/07/09 07:32:00;;;;;;;6.03;3.93;;;56.50;1.00;;;;;;5046774;28;20473;-65
2023/07/09 07:34:27;;;;;;;6.07;3.60;;;56.70;1.00;;;;;;5045923;28;20588;-65
2023/07/09 07:36:55;;;;;;;7.50;4.00;;;56.90;1.00;;;;;;5044591;28;20230;-66
2023/07/09 07:39:21;;;;;;;4.45;3.55;;;57.50;1.00;;;;;;5046769;28;20203;-65
2023/07/09 07:41:50;;;;;;;5.15;2.80;;;57.50;1.00;;;;;;5046969;28;20210;-65
2023/07/09 07:44:17;;;;;;;6.13;3.53;;;57.70;1.00;;;;;;5037535;28;20219;-65
2023/07/09 07:46:44;;;;;;;5.03;3.50;;;57.80;1.00;;;;;;5046422;28;20218;-65
2023/07/09 07:49:11;;;;;;;5.95;3.60;;;57.80;1.00;;;;;;5045566;28;20218;-65
2023/07/09 07:51:38;;;;;;;5.30;3.30;;;58.10;1.00;;;;;;5047238;28;20619;-66
2023/07/09 07:54:08;;;;;;;5.07;3.88;;;58.20;1.00;;;;;;5045770;28;20272;-65
2023/07/09 07:56:35;;;;;;;5.28;3.55;;;58.40;1.00;;;;;;5048301;28;20205;-65
2023/07/09 07:59:02;;;;;;;5.03;2.95;;;58.70;1.00;;;;;;5046647;28;20629;-66
2023/07/09 08:01:29;;;;;;;6.82;3.88;;;58.90;1.00;;;;;;5047416;28;20309;-65
2023/07/09 08:03:56;;;;;;;5.45;3.17;;;59.30;1.00;;;;;;5047125;28;20223;-65
2023/07/09 08:06:23;;;;;;;4.88;3.67;;;59.50;1.00;;;;;;5046102;28;20550;-65
2023/07/09 08:08:49;;;;;;;6.70;3.35;;;59.80;1.00;;;;;;5046887;28;20214;-65
2023/07/09 08:11:17;;;;;;;5.30;3.15;;;60.10;1.00;;;;;;5045756;28;20203;-66
2023/07/09 08:13:44;;;;;;;7.93;4.47;;;60.20;1.00;;;;;;5046541;28;20691;-66
2023/07/09 08:16:12;;;;;;;7.03;3.80;;;60.50;1.00;;;;;;5046317;28;20242;-65
2023/07/09 08:18:39;;;;;;;7.10;3.45;;;60.70;1.00;;;;;;5046638;28;20521;-65
2023/07/09 08:21:06;;;;;;;5.43;3.95;;;61.10;1.00;;;;;;5044737;28;20207;-65
2023/07/09 08:23:33;;;;;;;5.28;3.60;;;61.30;1.00;;;;;;5039763;28;20219;-66
2023/07/09 08:26:02;;;;;;;8.95;3.97;;;61.60;1.00;;;;;;5047144;28;20678;-66
2023/07/09 08:28:30;;;;;;;6.63;3.00;;;61.60;1.00;;;;;;5044306;28;20200;-65
2023/07/09 08:30:59;;;;;;;4.53;2.95;;;61.10;1.00;;;;;;5044339;28;20237;-66
2023/07/09 08:33:26;;;;;;;6.70;3.33;;;60.80;1.00;;;;;;5039954;28;20211;-66
2023/07/09 08:35:54;;;;;;;7.28;3.63;;;60.70;1.00;;;;;;5044976;28;20586;-66
2023/07/09 08:38:21;;;;;;;5.10;3.25;;;60.70;1.00;;;;;;5046938;28;20203;-67
2023/07/09 08:40:55;;;;;;;5.15;2.97;;;61.30;1.00;;;;;;5048573;28;20583;-67
2023/07/09 08:43:35;;;;;;;5.10;3.60;;;61.10;1.00;;;;;;5051013;28;20215;-67
2023/07/09 08:46:16;;;;;;;5.88;3.50;;;61.40;1.00;;;;;;5051183;28;20555;-66
2023/07/09 08:48:46;;;;;;;5.40;3.92;;;61.20;1.00;;;;;;5046214;28;20281;-66
2023/07/09 08:51:19;;;;;;;6.53;3.80;;;61.10;1.00;;;;;;5048403;28;20700;-65
2023/07/09 08:53:51;;;;;;;5.63;3.40;;;60.60;1.00;;;;;;5050029;28;20222;-66
2023/07/09 08:56:18;;;;;;;6.47;3.63;;;60.60;1.00;;;;;;5049311;28;20253;-66
2023/07/09 08:58:49;;;;;;;6.72;3.38;;;60.80;1.00;;;;;;5049791;28;20686;-65
2023/07/09 09:01:20;;;;;;;5.97;3.85;;;60.50;1.00;;;;;;5049238;28;20227;-65
2023/07/09 09:03:50;;;;;;;5.82;3.20;;;60.80;1.00;;;;;;5047835;28;20689;-66
2023/07/09 09:06:20;;;;;;;5.60;3.55;;;61.10;1.00;;;;;;5049729;28;20213;-66
2023/07/09 09:08:55;;;;;;;5.68;3.38;;;61.50;1.00;;;;;;5050114;28;20202;-66
2023/07/09 09:11:28;;;;;;;6.25;2.67;;;61.50;1.00;;;;;;5048628;28;20198;-66
2023/07/09 09:14:02;;;;;;;6.22;3.13;;;61.40;1.00;;;;;;5050683;28;20254;-66
2023/07/09 09:16:33;;;;;;;5.35;2.85;;;61.40;1.00;;;;;;5049420;28;20202;-66
2023/07/09 09:19:01;;;;;;;5.82;3.58;;;61.00;1.00;;;;;;5049084;28;20207;-66
2023/07/09 09:21:33;;;;;;;5.45;3.15;;;61.10;1.00;;;;;;5044626;28;20578;-66
2023/07/09 09:24:13;;;;;;;6.68;3.42;;;61.10;1.00;;;;;;5048846;28;20246;-65
2023/07/09 09:26:43;;;;;;;5.40;3.13;;;60.90;1.00;;;;;;5044142;28;20206;-65
2023/07/09 09:29:14;;;;;;;6.65;3.45;;;60.30;1.00;;;;;;5046740;28;20207;-66
2023/07/09 09:31:43;;;;;;;5.65;3.60;;;59.60;1.00;;;;;;5044671;28;20292;-65
2023/07/09 09:34:19;;;;;;;5.97;3.35;;;58.10;1.00;;;;;;5048801;28;20227;-65
2023/07/09 09:36:46;;;;;;;7.03;3.47;;;55.80;1.00;;;;;;5049483;28;20241;-66
2023/07/09 09:39:13;;;;;;;6.57;2.80;;;53.70;1.00;;;;;;5046852;28;20218;-66
2023/07/09 09:41:40;;;;;;;5.10;3.23;;;52.10;1.00;;;;;;5049002;28;20262;-66
2023/07/09 09:44:07;;;;;;;8.00;3.67;;;50.60;1.00;;;;;;5048946;28;20919;-65
2023/07/09 09:46:35;;;;;;;6.13;3.50;;;48.70;1.00;;;;;;5048203;28;20467;-66
2023/07/09 09:49:02;;;;;;;5.33;3.40;;;47.00;1.00;;;;;;5049450;28;20469;-65
2023/07/09 09:51:30;;;;;;;7.20;3.50;;;45.90;1.00;;;;;;5048691;28;20550;-65
2023/07/09 09:53:59;;;;;;;6.00;3.53;;;44.90;1.00;;;;;;5047573;28;20477;-65
2023/07/09 09:56:28;;;;;;;5.93;3.20;;;44.10;1.00;;;;;;5048210;28;20951;-66
2023/07/09 09:58:57;;;;;;;6.67;3.27;;;43.40;1.00;;;;;;5047610;28;20573;-65
2023/07/09 10:01:29;;;;;;;7.03;3.73;;;42.70;1.00;;;;;;5043094;28;20489;-66
2023/07/09 10:03:59;;;;;;;6.33;3.17;;;42.10;1.00;;;;;;5051112;28;20487;-65
2023/07/09 10:06:34;;;;;;;6.07;3.30;;;41.50;1.00;;;;;;5052651;28;21394;-65
2023/07/09 10:09:06;;;;;;;6.43;3.70;;;41.10;1.00;;;;;;5054965;28;20465;-67
2023/07/09 10:11:44;;;;;;;9.00;3.93;;;40.60;1.00;;;;;;5049232;28;20462;-65
2023/07/09 10:14:27;;;;;;;7.47;3.93;;;40.10;1.00;;;;;;5046261;28;20490;-66
2023/07/09 10:17:00;;;;;;;6.97;3.87;;;39.50;1.00;;;;;;5050374;28;20472;-66
2023/07/09 10:19:35;;;;;;;7.90;4.33;;;38.90;1.00;;;;;;5053595;28;21096;-66
2023/07/09 10:22:05;;;;;;;9.90;3.53;;;38.30;1.00;;;;;;5048998;28;20464;-66
2023/07/09 10:24:44;;;;;;;6.03;3.60;;;38.10;1.00;;;;;;5047232;28;20517;-65
2023/07/09 10:27:13;;;;;;;9.07;3.53;;;37.90;1.00;;;;;;5047692;28;20466;-65
2023/07/09 10:30:02;;;;;;;6.33;3.47;;;37.60;1.00;;;;;;5048855;28;20499;-65
2023/07/09 10:32:43;;;;;;;7.73;3.70;;;37.50;1.00;;;;;;5044713;28;21017;-65
2023/07/09 10:35:19;;;;;;;6.50;3.30;;;37.20;1.00;;;;;;5047889;28;20484;-64
2023/07/09 10:38:08;;;;;;;6.80;4.07;;;36.90;1.00;;;;;;5048207;28;20793;-64
2023/07/09 10:40:40;;;;;;;7.80;3.80;;;36.70;1.00;;;;;;5042000;28;20469;-65
2023/07/09 10:43:16;;;;;;;7.03;2.93;;;36.50;1.00;;;;;;5040989;28;20489;-65
2023/07/09 10:45:48;;;;;;;5.53;3.30;;;36.30;1.00;;;;;;5043426;28;20833;-65
2023/07/09 10:48:18;;;;;;;8.40;3.83;;;36.10;1.00;;;;;;5041934;28;20473;-64
2023/07/09 10:50:50;;;;;;;7.40;3.70;;;36.00;1.00;;;;;;5044125;28;20536;-65
2023/07/09 10:53:33;;;;;;;6.13;3.77;;;35.90;1.00;;;;;;5046834;28;20482;-65
2023/07/09 10:56:04;;;;;;;8.70;3.80;;;35.70;1.00;;;;;;5044434;28;21016;-63
2023/07/09 10:58:37;;;;;;;5.80;2.97;;;35.40;1.00;;;;;;5038754;28;21041;-64
2023/07/09 11:01:05;;;;;;;9.60;4.23;;;35.30;1.00;;;;;;5047377;28;21026;-64
2023/07/09 11:03:42;;;;;;;9.40;4.40;;;35.30;1.00;;;;;;5042309;28;20521;-64
2023/07/09 11:06:19;;;;;;;7.47;3.63;;;35.20;1.00;;;;;;5044776;28;20567;-64
2023/07/09 11:08:48;;;;;;;6.50;4.10;;;35.10;1.00;;;;;;5048121;28;20457;-65
2023/07/09 11:11:23;;;;;;;8.33;3.60;;;35.10;1.00;;;;;;5045606;28;20465;-64
2023/07/09 11:13:53;;;;;;;9.80;3.87;;;35.10;1.00;;;;;;5048696;28;20825;-65
2023/07/09 11:16:28;;;;;;;7.77;3.27;;;35.10;1.00;;;;;;5047918;28;20497;-65
2023/07/09 11:19:05;;;;;;;8.10;3.50;;;34.90;1.00;;;;;;5045031;28;20469;-65
2023/07/09 11:21:33;;;;;;;6.43;3.13;;;34.80;1.00;;;;;;5045359;28;20870;-65
2023/07/09 11:24:01;;;;;;;8.13;3.57;;;34.70;1.00;;;;;;5045496;28;20486;-66
2023/07/09 11:26:29;;;;;;;6.00;3.23;;;34.50;1.00;;;;;;5045867;28;20462;-65
2023/07/09 11:29:13;;;;;;;7.20;3.70;;;34.50;1.00;;;;;;5042878;28;20463;-65
2023/07/09 11:31:44;;;;;;;6.67;3.93;;;34.40;1.00;;;;;;5039746;28;21189;-65
2023/07/09 11:34:17;;;;;;;7.80;4.20;;;34.40;1.00;;;;;;5044846;28;20481;-65
2023/07/09 11:36:51;;;;;;;7.33;3.23;;;34.40;1.00;;;;;;5043822;28;20524;-65
2023/07/09 11:39:21;;;;;;;9.90;3.90;;;34.30;1.00;;;;;;5042501;28;20461;-65
2023/07/09 11:41:48;;;;;;;8.33;3.93;;;34.10;1.00;;;;;;5045517;28;20473;-65
2023/07/09 11:44:18;;;;;;;8.07;3.50;;;34.10;1.00;;;;;;5045347;28;20482;-65
2023/07/09 11:46:58;;;;;;;6.63;3.70;;;34.00;1.00;;;;;;5042618;28;20549;-65
2023/07/09 11:49:28;;;;;;;7.33;3.40;;;34.00;1.00;;;;;;5040957;28;20481;-65
2023/07/09 11:52:02;;;;;;;7.00;4.23;;;34.00;1.00;;;;;;5044375;28;20482;-65
2023/07/09 11:54:35;;;;;;;8.00;3.90;;;33.90;1.00;;;;;;5042464;28;20478;-65
2023/07/09 11:57:03;;;;;;;9.40;4.03;;;33.80;1.00;;;;;;5043392;28;20561;-65
2023/07/09 11:59:29;;;;;;;8.93;3.70;;;33.80;1.00;;;;;;5042748;28;20465;-65
2023/07/09 12:02:00;;;;;;;7.50;3.80;;;33.80;1.00;;;;;;5037534;28;20486;-65
2023/07/09 12:04:34;;;;;;;8.70;3.97;;;33.90;1.00;;;;;;5036854;28;20866;-65
2023/07/09 12:07:05;;;;;;;8.17;4.43;;;33.90;1.00;;;;;;5045527;28;21183;-64
2023/07/09 12:09:42;;;;;;;8.77;3.63;;;34.00;1.00;;;;;;5044296;28;20534;-65
2023/07/09 12:12:19;;;;;;;7.67;4.00;;;34.00;1.00;;;;;;5042643;28;21037;-64
2023/07/09 12:14:45;;;;;;;12.10;4.30;;;34.00;1.00;;;;;;5044812;28;20500;-66
2023/07/09 12:17:12;;;;;;;7.40;4.00;;;34.00;1.00;;;;;;5044437;28;20473;-65
2023/07/09 12:19:40;;;;;;;7.87;4.03;;;34.00;1.00;;;;;;5047236;28;20465;-65
2023/07/09 12:22:15;;;;;;;6.30;3.50;;;34.00;1.00;;;;;;5045473;28;20465;-65
2023/07/09 12:24:44;;;;;;;7.63;4.07;;;34.00;1.00;;;;;;5048895;28;20488;-65
2023/07/09 12:27:25;;;;;;;6.60;3.53;;;34.00;1.00;;;;;;5048226;28;20469;-65
2023/07/09 12:29:54;;;;;;;7.43;4.37;;;34.00;1.00;;;;;;5048762;28;20466;-65
2023/07/09 12:32:22;;;;;;;6.90;3.37;;;34.00;1.00;;;;;;5041131;28;20473;-64
2023/07/09 12:34:52;;;;;;;8.20;3.80;;;34.00;1.00;;;;;;5047146;28;20482;-64
2023/07/09 12:37:22;;;;;;;5.90;3.37;;;33.90;1.00;;;;;;5042275;28;20712;-64
2023/07/09 12:39:52;;;;;;;7.70;3.53;;;34.00;1.00;;;;;;5042311;28;20489;-64
2023/07/09 12:42:21;;;;;;;7.63;3.50;;;33.90;1.00;;;;;;5047787;28;20470;-64
2023/07/09 12:44:49;;;;;;;8.37;3.47;;;33.80;1.00;;;;;;5044319;28;20485;-64
2023/07/09 12:47:18;;;;;;;6.40;3.87;;;33.80;1.00;;;;;;5047052;28;20977;-64
2023/07/09 12:49:47;;;;;;;7.77;3.77;;;33.80;1.00;;;;;;5045776;28;20478;-64
2023/07/09 12:52:19;;;;;;;8.73;3.53;;;33.80;1.00;;;;;;5042287;28;20473;-64
2023/07/09 12:54:57;;;;;;;7.00;3.60;;;33.80;1.00;;;;;;5039816;28;20527;-65
2023/07/09 12:57:25;;;;;;;6.60;3.33;;;33.90;1.00;;;;;;5045764;28;20561;-65
2023/07/09 12:59:51;;;;;;;6.63;3.90;;;34.00;1.00;;;;;;5046685;28;20468;-65
2023/07/09 13:02:20;;;;;;;6.47;3.50;;;34.00;1.00;;;;;;5046487;28;20473;-64
2023/07/09 13:04:48;;;;;;;6.73;3.87;;;34.10;1.00;;;;;;5048550;28;20513;-65